sensor_id;sensor_type;location;lat;lon;timestamp;pressure;altitude;pressure_sealevel;temperature;humidity
7760;BME280;3924;48.830;9.262;2023-04-01T00:01:43;97252.09;;;9.08;79.43
7760;BME280;3924;48.830;9.262;2023-04-01T00:04:09;97254.81;;;9.08;79.50
7760;BME280;3924;48.830;9.262;2023-04-01T00:06:35;97249.41;;;9.08;79.29
7760;BME280;3924;48.830;9.262;2023-04-01T00:09:02;97252.56;;;9.10;79.57
7760;BME280;3924;48.830;9.262;2023-04-01T00:11:30;97242.22;;;9.12;79.38
7760;BME280;3924;48.830;9.262;2023-04-01T00:13:57;97249.25;;;9.13;79.45
7760;BME280;3924;48.830;9.262;2023-04-01T00:16:23;97242.22;;;9.12;79.41
7760;BME280;3924;48.830;9.262;2023-04-01T00:18:50;97248.16;;;9.14;79.13
7760;BME280;3924;48.830;9.262;2023-04-01T00:21:18;97254.03;;;9.16;79.20
7760;BME280;3924;48.830;9.262;2023-04-01T00:23:45;97254.03;;;9.16;79.14
7760;BME280;3924;48.830;9.262;2023-04-01T00:26:11;97247.81;;;9.15;79.41
7760;BME280;3924;48.830;9.262;2023-04-01T00:28:39;97252.44;;;9.15;79.31
7760;BME280;3924;48.830;9.262;2023-04-01T00:31:08;97252.44;;;9.15;79.09
7760;BME280;3924;48.830;9.262;2023-04-01T00:33:35;97260.06;;;9.13;79.36
7760;BME280;3924;48.830;9.262;2023-04-01T00:36:15;97257.97;;;9.10;79.17
7760;BME280;3924;48.830;9.262;2023-04-01T00:38:42;97257.50;;;9.08;79.34
7760;BME280;3924;48.830;9.262;2023-04-01T00:41:10;97259.41;;;9.07;79.41
7760;BME280;3924;48.830;9.262;2023-04-01T00:43:43;97247.81;;;9.07;79.32
7760;BME280;3924;48.830;9.262;2023-04-01T00:46:10;97262.91;;;9.08;79.30
7760;BME280;3924;48.830;9.262;2023-04-01T00:48:39;97257.50;;;9.08;79.47
7760;BME280;3924;48.830;9.262;2023-04-01T00:51:25;97259.09;;;9.09;79.38
7760;BME280;3924;48.830;9.262;2023-04-01T00:53:55;97256.88;;;9.11;79.37
7760;BME280;3924;48.830;9.262;2023-04-01T00:56:26;97260.53;;;9.15;79.43
7760;BME280;3924;48.830;9.262;2023-04-01T00:59:00;97265.31;;;9.18;79.29
7760;BME280;3924;48.830;9.262;2023-04-01T01:01:29;97261.50;;;9.19;79.24
7760;BME280;3924;48.830;9.262;2023-04-01T01:03:56;97261.19;;;9.20;79.20
7760;BME280;3924;48.830;9.262;2023-04-01T01:09:10;97265.81;;;9.20;79.20
7760;BME280;3924;48.830;9.262;2023-04-01T01:20:24;97253.38;;;9.19;79.38
7760;BME280;3924;48.830;9.262;2023-04-01T01:36:53;97261.66;;;9.14;79.45
7760;BME280;3924;48.830;9.262;2023-04-01T01:39:25;97258.44;;;9.12;79.08
7760;BME280;3924;48.830;9.262;2023-04-01T01:41:55;97253.03;;;9.12;79.59
7760;BME280;3924;48.830;9.262;2023-04-01T01:44:25;97257.66;;;9.11;79.55
7760;BME280;3924;48.830;9.262;2023-04-01T01:46:55;97264.50;;;9.09;79.62
7760;BME280;3924;48.830;9.262;2023-04-01T01:49:23;97258.44;;;9.12;79.47
7760;BME280;3924;48.830;9.262;2023-04-01T01:51:50;97254.81;;;9.08;79.42
7760;BME280;3924;48.830;9.262;2023-04-01T01:54:17;97262.41;;;9.05;79.61
7760;BME280;3924;48.830;9.262;2023-04-01T01:56:47;97264.63;;;9.03;79.68
7760;BME280;3924;48.830;9.262;2023-04-01T01:59:17;97266.41;;;8.99;79.74
7760;BME280;3924;48.830;9.262;2023-04-01T02:01:49;97256.19;;;8.96;79.91
7760;BME280;3924;48.830;9.262;2023-04-01T02:04:18;97258.44;;;8.94;79.86
7760;BME280;3924;48.830;9.262;2023-04-01T02:07:10;97251.25;;;8.90;80.07
7760;BME280;3924;48.830;9.262;2023-04-01T02:09:39;97249.97;;;8.87;80.08
7760;BME280;3924;48.830;9.262;2023-04-01T02:12:08;97258.09;;;8.87;80.29
7760;BME280;3924;48.830;9.262;2023-04-01T02:17:06;97249.47;;;8.85;80.24
7760;BME280;3924;48.830;9.262;2023-04-01T02:19:38;97269.50;;;8.84;80.42
7760;BME280;3924;48.830;9.262;2023-04-01T02:22:09;97267.91;;;8.83;80.35
7760;BME280;3924;48.830;9.262;2023-04-01T02:24:39;97269.50;;;8.84;80.38
7760;BME280;3924;48.830;9.262;2023-04-01T02:27:06;97278.72;;;8.83;80.47
7760;BME280;3924;48.830;9.262;2023-04-01T02:29:33;97270.63;;;8.83;80.49
7760;BME280;3924;48.830;9.262;2023-04-01T02:32:00;97265.69;;;8.85;80.49
7760;BME280;3924;48.830;9.262;2023-04-01T02:34:27;97267.91;;;8.83;80.51
7760;BME280;3924;48.830;9.262;2023-04-01T02:36:55;97268.25;;;8.82;80.52
7760;BME280;3924;48.830;9.262;2023-04-01T02:39:23;97255.84;;;8.81;80.81
7760;BME280;3924;48.830;9.262;2023-04-01T02:41:51;97263.94;;;8.81;80.80
7760;BME280;3924;48.830;9.262;2023-04-01T02:44:18;97265.84;;;8.80;80.83
7760;BME280;3924;48.830;9.262;2023-04-01T02:46:44;97263.16;;;8.80;80.87
7760;BME280;3924;48.830;9.262;2023-04-01T02:49:11;97254.53;;;8.78;80.73
7760;BME280;3924;48.830;9.262;2023-04-01T02:51:37;97260.59;;;8.75;80.87
7760;BME280;3924;48.830;9.262;2023-04-01T02:54:04;97260.59;;;8.75;80.91
7760;BME280;3924;48.830;9.262;2023-04-01T02:56:30;97261.69;;;8.74;80.98
7760;BME280;3924;48.830;9.262;2023-04-01T02:58:56;97258.19;;;8.73;80.98
7760;BME280;3924;48.830;9.262;2023-04-01T03:01:23;97259.00;;;8.74;80.71
7760;BME280;3924;48.830;9.262;2023-04-01T03:03:50;97259.91;;;8.69;80.90
7760;BME280;3924;48.830;9.262;2023-04-01T03:06:17;97264.53;;;8.69;80.85
7760;BME280;3924;48.830;9.262;2023-04-01T03:08:44;97259.25;;;8.64;80.96
7760;BME280;3924;48.830;9.262;2023-04-01T03:11:11;97252.91;;;8.60;81.12
7760;BME280;3924;48.830;9.262;2023-04-01T03:13:37;97258.31;;;8.60;81.21
7760;BME280;3924;48.830;9.262;2023-04-01T03:16:04;97264.66;;;8.64;80.95
7760;BME280;3924;48.830;9.262;2023-04-01T03:18:31;97259.25;;;8.64;81.11
7760;BME280;3924;48.830;9.262;2023-04-01T03:21:18;97263.06;;;8.63;80.99
7760;BME280;3924;48.830;9.262;2023-04-01T03:23:46;97265.78;;;8.63;80.99
7760;BME280;3924;48.830;9.262;2023-04-01T03:26:12;97272.28;;;8.62;80.94
7760;BME280;3924;48.830;9.262;2023-04-01T03:28:39;97264.19;;;8.62;80.97
7760;BME280;3924;48.830;9.262;2023-04-01T03:31:06;97272.59;;;8.60;81.04
7760;BME280;3924;48.830;9.262;2023-04-01T03:33:33;97272.72;;;8.55;80.94
7760;BME280;3924;48.830;9.262;2023-04-01T03:35:59;97268.25;;;8.50;81.35
7760;BME280;3924;48.830;9.262;2023-04-01T03:38:26;97280.69;;;8.52;81.20
7760;BME280;3924;48.830;9.262;2023-04-01T03:40:52;97273.66;;;8.50;81.16
7760;BME280;3924;48.830;9.262;2023-04-01T03:43:19;97272.88;;;8.50;81.21
7760;BME280;3924;48.830;9.262;2023-04-01T03:45:50;97261.59;;;8.48;81.06
7760;BME280;3924;48.830;9.262;2023-04-01T03:48:17;97259.34;;;8.50;81.17
7760;BME280;3924;48.830;9.262;2023-04-01T03:50:44;97264.59;;;8.46;81.01
7760;BME280;3924;48.830;9.262;2023-04-01T03:53:11;97261.91;;;8.46;81.17
7760;BME280;3924;48.830;9.262;2023-04-01T03:55:38;97256.03;;;8.44;81.28
7760;BME280;3924;48.830;9.262;2023-04-01T03:58:06;97251.41;;;8.45;80.95
7760;BME280;3924;48.830;9.262;2023-04-01T04:00:33;97248.19;;;8.43;81.13
7760;BME280;3924;48.830;9.262;2023-04-01T04:02:59;97245.03;;;8.41;81.09
7760;BME280;3924;48.830;9.262;2023-04-01T04:05:27;97238.84;;;8.40;81.16
7760;BME280;3924;48.830;9.262;2023-04-01T04:07:54;97248.03;;;8.39;81.29
7760;BME280;3924;48.830;9.262;2023-04-01T04:10:21;97241.06;;;8.38;81.14
7760;BME280;3924;48.830;9.262;2023-04-01T04:12:49;97235.66;;;8.38;81.11
7760;BME280;3924;48.830;9.262;2023-04-01T04:15:16;97237.06;;;8.36;81.15
7760;BME280;3924;48.830;9.262;2023-04-01T04:17:46;97232.44;;;8.36;81.00
7760;BME280;3924;48.830;9.262;2023-04-01T04:20:13;97237.25;;;8.39;80.83
7760;BME280;3924;48.830;9.262;2023-04-01T04:22:40;97238.19;;;8.43;81.05
7760;BME280;3924;48.830;9.262;2023-04-01T04:25:07;97236.00;;;8.45;80.83
7760;BME280;3924;48.830;9.262;2023-04-01T04:27:34;97229.50;;;8.46;80.89
7760;BME280;3924;48.830;9.262;2023-04-01T04:30:01;97229.50;;;8.46;80.78
7760;BME280;3924;48.830;9.262;2023-04-01T04:32:27;97241.22;;;8.42;80.72
7760;BME280;3924;48.830;9.262;2023-04-01T04:34:55;97242.44;;;8.36;80.85
7760;BME280;3924;48.830;9.262;2023-04-01T04:37:21;97239.56;;;8.32;80.81
7760;BME280;3924;48.830;9.262;2023-04-01T04:39:48;97239.88;;;8.31;80.94
7760;BME280;3924;48.830;9.262;2023-04-01T04:42:14;97233.97;;;8.29;80.84
7760;BME280;3924;48.830;9.262;2023-04-01T04:44:40;97243.97;;;8.28;80.99
7760;BME280;3924;48.830;9.262;2023-04-01T04:47:07;97241.13;;;8.25;80.89
7760;BME280;3924;48.830;9.262;2023-04-01T04:49:33;97245.72;;;8.24;80.85
7760;BME280;3924;48.830;9.262;2023-04-01T04:52:00;97237.63;;;8.24;80.77
7760;BME280;3924;48.830;9.262;2023-04-01T04:54:26;97245.53;;;8.20;80.81
7760;BME280;3924;48.830;9.262;2023-04-01T04:56:53;97241.25;;;8.19;80.72
7760;BME280;3924;48.830;9.262;2023-04-01T04:59:19;97236.94;;;8.18;80.71
7760;BME280;3924;48.830;9.262;2023-04-01T05:01:46;97241.56;;;8.18;80.78
7760;BME280;3924;48.830;9.262;2023-04-01T05:04:13;97237.75;;;8.19;80.79
7760;BME280;3924;48.830;9.262;2023-04-01T05:06:39;97236.16;;;8.18;80.80
7760;BME280;3924;48.830;9.262;2023-04-01T05:09:05;97235.34;;;8.17;80.89
7760;BME280;3924;48.830;9.262;2023-04-01T05:11:32;97229.16;;;8.17;80.77
7760;BME280;3924;48.830;9.262;2023-04-01T05:13:58;97239.97;;;8.17;80.71
7760;BME280;3924;48.830;9.262;2023-04-01T05:16:25;97246.63;;;8.19;80.92
7760;BME280;3924;48.830;9.262;2023-04-01T05:18:51;97235.53;;;8.21;80.62
7760;BME280;3924;48.830;9.262;2023-04-01T05:21:18;97227.91;;;8.23;80.63
7760;BME280;3924;48.830;9.262;2023-04-01T05:23:44;97224.72;;;8.21;80.66
7760;BME280;3924;48.830;9.262;2023-04-01T05:26:12;97229.00;;;8.22;80.52
7760;BME280;3924;48.830;9.262;2023-04-01T05:28:39;97220.13;;;8.21;80.63
7760;BME280;3924;48.830;9.262;2023-04-01T05:31:07;97221.53;;;8.19;80.56
7760;BME280;3924;48.830;9.262;2023-04-01T05:33:34;97227.09;;;8.22;80.62
7760;BME280;3924;48.830;9.262;2023-04-01T05:36:11;97231.91;;;8.26;80.65
7760;BME280;3924;48.830;9.262;2023-04-01T05:38:39;97221.44;;;8.33;80.60
7760;BME280;3924;48.830;9.262;2023-04-01T05:41:05;97226.44;;;8.39;80.34
7760;BME280;3924;48.830;9.262;2023-04-01T05:43:36;97232.97;;;8.47;80.28
7760;BME280;3924;48.830;9.262;2023-04-01T05:46:03;97226.66;;;8.52;80.23
7760;BME280;3924;48.830;9.262;2023-04-01T05:48:29;97219.50;;;8.56;80.07
7760;BME280;3924;48.830;9.262;2023-04-01T05:50:56;97210.28;;;8.57;80.04
7760;BME280;3924;48.830;9.262;2023-04-01T05:53:22;97215.88;;;8.60;80.07
7760;BME280;3924;48.830;9.262;2023-04-01T05:55:49;97206.22;;;8.68;80.02
7760;BME280;3924;48.830;9.262;2023-04-01T05:58:16;97200.16;;;8.71;80.01
7760;BME280;3924;48.830;9.262;2023-04-01T06:00:42;97200.16;;;8.71;79.88
7760;BME280;3924;48.830;9.262;2023-04-01T06:03:09;97204.31;;;8.77;79.88
7760;BME280;3924;48.830;9.262;2023-04-01T06:05:43;97213.72;;;8.80;79.68
7760;BME280;3924;48.830;9.262;2023-04-01T06:08:15;97204.66;;;8.84;79.66
7760;BME280;3924;48.830;9.262;2023-04-01T06:16:58;97199.78;;;9.03;79.43
7760;BME280;3924;48.830;9.262;2023-04-01T06:19:38;97208.19;;;9.11;79.13
7760;BME280;3924;48.830;9.262;2023-04-01T06:25:34;97212.81;;;9.19;79.00
7760;BME280;3924;48.830;9.262;2023-04-01T06:45:12;97218.44;;;9.48;78.26
7760;BME280;3924;48.830;9.262;2023-04-01T06:47:59;97210.59;;;9.47;78.06
7760;BME280;3924;48.830;9.262;2023-04-01T06:55:41;97205.84;;;9.44;77.93
7760;BME280;3924;48.830;9.262;2023-04-01T06:58:36;97208.41;;;9.49;77.80
7760;BME280;3924;48.830;9.262;2023-04-01T07:01:04;97212.38;;;9.51;77.76
7760;BME280;3924;48.830;9.262;2023-04-01T07:03:35;97209.03;;;9.54;77.64
7760;BME280;3924;48.830;9.262;2023-04-01T07:06:05;97204.56;;;9.58;77.53
7760;BME280;3924;48.830;9.262;2023-04-01T07:08:36;97210.94;;;9.63;77.32
7760;BME280;3924;48.830;9.262;2023-04-01T07:11:06;97208.72;;;9.65;77.27
7760;BME280;3924;48.830;9.262;2023-04-01T07:18:47;97216.66;;;9.70;77.14
7760;BME280;3924;48.830;9.262;2023-04-01T07:21:26;97220.97;;;9.71;77.09
7760;BME280;3924;48.830;9.262;2023-04-01T07:24:01;97214.75;;;9.70;77.02
7760;BME280;3924;48.830;9.262;2023-04-01T07:26:31;97219.38;;;9.70;77.07
7760;BME280;3924;48.830;9.262;2023-04-01T07:28:57;97220.78;;;9.67;76.89
7760;BME280;3924;48.830;9.262;2023-04-01T07:31:39;97216.50;;;9.66;76.86
7760;BME280;3924;48.830;9.262;2023-04-01T07:37:23;97222.56;;;9.63;76.92
7760;BME280;3924;48.830;9.262;2023-04-01T07:46:36;97224.31;;;9.59;76.93
7760;BME280;3924;48.830;9.262;2023-04-01T07:48:39;97223.97;;;9.60;76.89
7760;BME280;3924;48.830;9.262;2023-04-01T07:51:29;97227.19;;;9.63;76.67
7760;BME280;3924;48.830;9.262;2023-04-01T07:54:05;97228.59;;;9.69;76.83
7760;BME280;3924;48.830;9.262;2023-04-01T07:56:48;97222.41;;;9.68;76.67
7760;BME280;3924;48.830;9.262;2023-04-01T08:01:55;97232.88;;;9.78;76.56
7760;BME280;3924;48.830;9.262;2023-04-01T08:04:38;97228.44;;;9.82;76.36
7760;BME280;3924;48.830;9.262;2023-04-01T08:07:18;97231.75;;;9.88;76.18
7760;BME280;3924;48.830;9.262;2023-04-01T08:15:23;97235.88;;;9.94;76.03
7760;BME280;3924;48.830;9.262;2023-04-01T08:18:04;97232.88;;;9.96;75.88
7760;BME280;3924;48.830;9.262;2023-04-01T08:20:46;97229.84;;;9.97;75.89
7760;BME280;3924;48.830;9.262;2023-04-01T08:23:22;97223.31;;;9.98;75.90
7760;BME280;3924;48.830;9.262;2023-04-01T08:26:22;97227.91;;;10.06;75.82
7760;BME280;3924;48.830;9.262;2023-04-01T08:32:18;97245.91;;;10.11;75.51
7760;BME280;3924;48.830;9.262;2023-04-01T08:34:46;97249.41;;;10.11;75.62
7760;BME280;3924;48.830;9.262;2023-04-01T08:37:17;97243.53;;;10.09;75.41
7760;BME280;3924;48.830;9.262;2023-04-01T08:39:52;97245.28;;;10.05;75.52
7760;BME280;3924;48.830;9.262;2023-04-01T08:47:37;97258.50;;;9.98;75.71
7760;BME280;3924;48.830;9.262;2023-04-01T08:51:09;97254.69;;;9.91;75.72
7760;BME280;3924;48.830;9.262;2023-04-01T08:56:20;97247.06;;;9.67;76.18
7760;BME280;3924;48.830;9.262;2023-04-01T09:15:53;97251.81;;;9.52;77.11
7760;BME280;3924;48.830;9.262;2023-04-01T09:21:17;97244.69;;;9.65;76.72
7760;BME280;3924;48.830;9.262;2023-04-01T09:24:19;97242.28;;;9.72;76.56
7760;BME280;3924;48.830;9.262;2023-04-01T09:37:41;97257.53;;;10.11;75.95
7760;BME280;3924;48.830;9.262;2023-04-01T09:40:17;97254.66;;;10.17;76.04
7760;BME280;3924;48.830;9.262;2023-04-01T09:45:41;97255.00;;;10.24;75.88
7760;BME280;3924;48.830;9.262;2023-04-01T09:50:50;97256.59;;;10.25;75.90
7760;BME280;3924;48.830;9.262;2023-04-01T10:26:27;97276.16;;;10.39;75.16
7760;BME280;3924;48.830;9.262;2023-04-01T10:46:15;97278.09;;;10.30;74.81
7760;BME280;3924;48.830;9.262;2023-04-01T13:56:32;97365.88;;;11.40;69.75
7760;BME280;3924;48.830;9.262;2023-04-01T14:05:31;97359.91;;;11.55;69.23
7760;BME280;3924;48.830;9.262;2023-04-01T14:08:29;97380.31;;;11.52;69.26
7760;BME280;3924;48.830;9.262;2023-04-01T14:20:33;97372.84;;;11.20;69.70
7760;BME280;3924;48.830;9.262;2023-04-01T14:39:07;97390.34;;;10.76;70.19
7760;BME280;3924;48.830;9.262;2023-04-01T14:42:13;97391.63;;;10.69;70.37
7760;BME280;3924;48.830;9.262;2023-04-01T14:47:44;97388.31;;;10.55;70.87
7760;BME280;3924;48.830;9.262;2023-04-01T14:50:17;97384.81;;;10.55;70.95
7760;BME280;3924;48.830;9.262;2023-04-01T14:55:57;97398.03;;;10.56;71.02
7760;BME280;3924;48.830;9.262;2023-04-01T14:58:52;97396.28;;;10.60;71.04
7760;BME280;3924;48.830;9.262;2023-04-01T15:04:37;97387.84;;;10.71;70.84
7760;BME280;3924;48.830;9.262;2023-04-01T15:13:53;97404.69;;;10.85;70.72
7760;BME280;3924;48.830;9.262;2023-04-01T15:17:05;97400.22;;;10.89;70.64
7760;BME280;3924;48.830;9.262;2023-04-01T15:31:53;97405.16;;;10.87;70.75
7760;BME280;3924;48.830;9.262;2023-04-01T15:37:59;97408.34;;;10.89;70.78
7760;BME280;3924;48.830;9.262;2023-04-01T15:40:41;97410.72;;;10.90;70.57
7760;BME280;3924;48.830;9.262;2023-04-01T15:43:36;97420.47;;;10.91;70.74
7760;BME280;3924;48.830;9.262;2023-04-01T15:46:46;97428.91;;;10.90;70.71
7760;BME280;3924;48.830;9.262;2023-04-01T15:49:39;97426.84;;;10.87;70.71
7760;BME280;3924;48.830;9.262;2023-04-01T16:01:12;97437.53;;;10.83;70.73
7760;BME280;3924;48.830;9.262;2023-04-01T16:12:11;97430.69;;;10.77;70.92
7760;BME280;3924;48.830;9.262;2023-04-01T16:20:17;97458.44;;;10.74;70.86
7760;BME280;3924;48.830;9.262;2023-04-01T16:22:59;97442.19;;;10.74;70.67
7760;BME280;3924;48.830;9.262;2023-04-01T16:28:38;97459.91;;;10.72;70.64
7760;BME280;3924;48.830;9.262;2023-04-01T16:31:43;97457.81;;;10.68;70.74
7760;BME280;3924;48.830;9.262;2023-04-01T16:43:46;97465.94;;;10.60;70.53
7760;BME280;3924;48.830;9.262;2023-04-01T16:46:29;97464.69;;;10.57;70.62
7760;BME280;3924;48.830;9.262;2023-04-01T16:51:45;97473.59;;;10.49;70.50
7760;BME280;3924;48.830;9.262;2023-04-01T16:54:28;97469.94;;;10.45;70.63
7760;BME280;3924;48.830;9.262;2023-04-01T16:57:15;97470.56;;;10.42;70.70
7760;BME280;3924;48.830;9.262;2023-04-01T17:02:28;97479.34;;;10.39;70.75
7760;BME280;3924;48.830;9.262;2023-04-01T17:05:01;97476.94;;;10.37;70.99
7760;BME280;3924;48.830;9.262;2023-04-01T17:18:29;97468.31;;;10.35;71.06
7760;BME280;3924;48.830;9.262;2023-04-01T17:21:05;97475.97;;;10.33;70.98
7760;BME280;3924;48.830;9.262;2023-04-01T17:23:48;97476.16;;;10.37;71.12
7760;BME280;3924;48.830;9.262;2023-04-01T17:32:15;97490.00;;;10.35;71.16
7760;BME280;3924;48.830;9.262;2023-04-01T17:43:53;97494.81;;;10.38;71.08
7760;BME280;3924;48.830;9.262;2023-04-01T17:50:23;97510.72;;;10.40;71.19
7760;BME280;3924;48.830;9.262;2023-04-01T17:52:46;97515.03;;;10.41;71.24
7760;BME280;3924;48.830;9.262;2023-04-01T17:55:43;97521.25;;;10.41;71.06
7760;BME280;3924;48.830;9.262;2023-04-01T17:58:28;97523.66;;;10.43;71.33
7760;BME280;3924;48.830;9.262;2023-04-01T18:01:17;97532.88;;;10.42;71.24
7760;BME280;3924;48.830;9.262;2023-04-01T18:09:52;97547.84;;;10.31;71.56
7760;BME280;3924;48.830;9.262;2023-04-01T18:12:53;97550.69;;;10.26;71.85
7760;BME280;3924;48.830;9.262;2023-04-01T18:23:38;97558.91;;;10.03;72.51
7760;BME280;3924;48.830;9.262;2023-04-01T18:26:31;97561.75;;;9.98;72.67
7760;BME280;3924;48.830;9.262;2023-04-01T18:29:11;97556.97;;;9.95;72.88
7760;BME280;3924;48.830;9.262;2023-04-01T18:31:48;97561.41;;;9.91;72.90
7760;BME280;3924;48.830;9.262;2023-04-01T18:34:55;97563.63;;;9.89;73.14
7760;BME280;3924;48.830;9.262;2023-04-01T18:37:37;97571.25;;;9.87;73.27
7760;BME280;3924;48.830;9.262;2023-04-01T18:40:32;97569.16;;;9.84;73.37
7760;BME280;3924;48.830;9.262;2023-04-01T18:43:11;97572.47;;;9.81;73.65
7760;BME280;3924;48.830;9.262;2023-04-01T18:45:51;97574.22;;;9.77;73.68
7760;BME280;3924;48.830;9.262;2023-04-01T18:51:20;97575.47;;;9.71;74.07
7760;BME280;3924;48.830;9.262;2023-04-01T18:54:00;97579.91;;;9.67;74.26
7760;BME280;3924;48.830;9.262;2023-04-01T18:56:38;97578.63;;;9.64;74.56
7760;BME280;3924;48.830;9.262;2023-04-01T18:59:26;97594.66;;;9.60;74.53
7760;BME280;3924;48.830;9.262;2023-04-01T19:05:29;97611.53;;;9.57;74.64
7760;BME280;3924;48.830;9.262;2023-04-01T19:11:01;97623.16;;;9.58;74.61
7760;BME280;3924;48.830;9.262;2023-04-01T19:17:05;97621.00;;;9.46;74.83
7760;BME280;3924;48.830;9.262;2023-04-01T19:19:51;97609.31;;;9.37;75.04
7760;BME280;3924;48.830;9.262;2023-04-01T19:22:35;97615.47;;;9.29;75.09
7760;BME280;3924;48.830;9.262;2023-04-01T19:28:01;97615.69;;;9.19;75.34
7760;BME280;3924;48.830;9.262;2023-04-01T19:42:12;97607.00;;;8.99;75.78
7760;BME280;3924;48.830;9.262;2023-04-01T19:53:18;97622.81;;;8.92;75.89
7760;BME280;3924;48.830;9.262;2023-04-01T19:55:59;97621.19;;;8.91;76.03
7760;BME280;3924;48.830;9.262;2023-04-01T19:58:48;97635.66;;;8.87;75.84
7760;BME280;3924;48.830;9.262;2023-04-01T20:01:49;97636.44;;;8.87;75.89
7760;BME280;3924;48.830;9.262;2023-04-01T20:04:33;97641.06;;;8.87;76.03
7760;BME280;3924;48.830;9.262;2023-04-01T20:07:35;97642.81;;;8.91;76.00
7760;BME280;3924;48.830;9.262;2023-04-01T20:10:13;97638.72;;;8.94;76.02
7760;BME280;3924;48.830;9.262;2023-04-01T20:13:00;97640.03;;;8.96;75.96
7760;BME280;3924;48.830;9.262;2023-04-01T20:15:37;97650.25;;;8.99;75.81
7760;BME280;3924;48.830;9.262;2023-04-01T20:20:40;97649.63;;;9.02;75.93
7760;BME280;3924;48.830;9.262;2023-04-01T20:23:33;97652.31;;;9.02;75.87
7760;BME280;3924;48.830;9.262;2023-04-01T20:26:06;97650.91;;;9.05;76.01
7760;BME280;3924;48.830;9.262;2023-04-01T20:28:48;97658.72;;;9.07;75.76
7760;BME280;3924;48.830;9.262;2023-04-01T20:31:43;97665.41;;;9.09;75.72
7760;BME280;3924;48.830;9.262;2023-04-01T20:40:35;97668.03;;;9.14;75.71
7760;BME280;3924;48.830;9.262;2023-04-01T20:51:31;97675.72;;;9.21;75.70
7760;BME280;3924;48.830;9.262;2023-04-01T21:00:02;97674.91;;;9.20;75.77
7760;BME280;3924;48.830;9.262;2023-04-01T21:03:00;97680.59;;;9.19;75.77
7760;BME280;3924;48.830;9.262;2023-04-01T21:06:04;97677.41;;;9.17;75.90
7760;BME280;3924;48.830;9.262;2023-04-01T21:11:04;97684.41;;;9.18;75.74
7760;BME280;3924;48.830;9.262;2023-04-01T21:35:43;97704.44;;;9.17;76.12
7760;BME280;3924;48.830;9.262;2023-04-01T21:50:43;97716.06;;;9.17;76.14
7760;BME280;3924;48.830;9.262;2023-04-01T22:04:54;97734.28;;;9.12;76.33
7760;BME280;3924;48.830;9.262;2023-04-01T22:10:16;97734.81;;;9.14;76.36
7760;BME280;3924;48.830;9.262;2023-04-01T22:13:10;97735.94;;;9.13;76.43
7760;BME280;3924;48.830;9.262;2023-04-01T22:15:48;97738.31;;;9.14;76.42
7760;BME280;3924;48.830;9.262;2023-04-01T22:18:31;97742.94;;;9.14;76.30
7760;BME280;3924;48.830;9.262;2023-04-01T22:21:11;97742.13;;;9.13;76.31
7760;BME280;3924;48.830;9.262;2023-04-01T22:24:03;97742.13;;;9.13;76.43
7760;BME280;3924;48.830;9.262;2023-04-01T22:29:34;97745.13;;;9.12;76.41
7760;BME280;3924;48.830;9.262;2023-04-01T22:32:23;97740.31;;;9.09;76.64
7760;BME280;3924;48.830;9.262;2023-04-01T22:35:10;97751.16;;;9.09;76.42
7760;BME280;3924;48.830;9.262;2023-04-01T22:40:35;97749.53;;;9.08;76.44
7760;BME280;3924;48.830;9.262;2023-04-01T22:43:16;97745.72;;;9.09;76.32
7760;BME280;3924;48.830;9.262;2023-04-01T22:48:36;97754.16;;;9.07;76.32
7760;BME280;3924;48.830;9.262;2023-04-01T22:51:18;97755.75;;;9.08;76.45
7760;BME280;3924;48.830;9.262;2023-04-01T22:56:43;97753.34;;;9.07;76.37
7760;BME280;3924;48.830;9.262;2023-04-01T22:59:14;97764.97;;;9.07;76.28
7760;BME280;3924;48.830;9.262;2023-04-01T23:01:50;97766.56;;;9.08;76.24
7760;BME280;3924;48.830;9.262;2023-04-01T23:04:23;97770.06;;;9.09;76.29
7760;BME280;3924;48.830;9.262;2023-04-01T23:06:55;97766.56;;;9.08;76.42
7760;BME280;3924;48.830;9.262;2023-04-01T23:09:26;97765.25;;;9.05;76.40
7760;BME280;3924;48.830;9.262;2023-04-01T23:12:09;97766.88;;;9.07;76.36
7760;BME280;3924;48.830;9.262;2023-04-01T23:14:48;97773.34;;;9.05;76.37
7760;BME280;3924;48.830;9.262;2023-04-01T23:17:24;97766.34;;;9.04;76.47
7760;BME280;3924;48.830;9.262;2023-04-01T23:25:53;97777.78;;;9.01;76.32
7760;BME280;3924;48.830;9.262;2023-04-01T23:28:44;97780.50;;;9.01;76.37
7760;BME280;3924;48.830;9.262;2023-04-01T23:31:29;97791.31;;;9.01;76.47
7760;BME280;3924;48.830;9.262;2023-04-01T23:34:03;97785.41;;;8.99;76.23
7760;BME280;3924;48.830;9.262;2023-04-01T23:36:31;97792.19;;;8.97;76.48
7760;BME280;3924;48.830;9.262;2023-04-01T23:39:11;97798.41;;;8.97;76.38
7760;BME280;3924;48.830;9.262;2023-04-01T23:41:43;97793.00;;;8.97;76.42
7760;BME280;3924;48.830;9.262;2023-04-01T23:44:12;97806.50;;;8.97;76.59
7760;BME280;3924;48.830;9.262;2023-04-01T23:46:40;97804.41;;;8.94;76.45
7760;BME280;3924;48.830;9.262;2023-04-01T23:49:13;97806.63;;;8.92;76.50
7760;BME280;3924;48.830;9.262;2023-04-01T23:51:52;97803.09;;;8.92;76.42
7760;BME280;3924;48.830;9.262;2023-04-01T23:54:33;97811.50;;;8.90;76.49
7760;BME280;3924;48.830;9.262;2023-04-01T23:57:04;97805.63;;;8.88;76.59
7760;BME280;3924;48.830;9.262;2023-04-01T23:59:36;97809.44;;;8.87;76.48
